Time;durP1;ratioP1;P1;durP2;ratioP2;P2;SDS_P1;SDS_P2;PMS_P1;PMS_P2;Temp;Humidity;BMP_temperature;BMP_pressure;BME280_temperature;BME280_humidity;BME280_pressure;Samples;Min_cycle;Max_cycle;Signal;HPM_P1;HPM_P2
2022/04/13 00:00:58;;;;;;;17.10;14.20;;;;;;;;;;4940932;29;20675;-87
2022/04/13 00:03:24;;;;;;;21.27;13.93;;;;;;;;;;4905081;29;20043;-86
2022/04/13 00:05:51;;;;;;;20.38;14.13;;;;;;;;;;4906752;29;20044;-88
2022/04/13 00:08:17;;;;;;;17.73;14.23;;;;;;;;;;4920574;29;20059;-87
2022/04/13 00:11:14;;;;;;;19.45;14.32;;;;;;;;;;4910853;29;20046;-88
2022/04/13 00:13:40;;;;;;;16.52;13.38;;;;;;;;;;4920546;29;20067;-88
2022/04/13 00:16:07;;;;;;;19.00;13.35;;;;;;;;;;4910023;29;20479;-89
2022/04/13 00:18:33;;;;;;;16.08;12.88;;;;;;;;;;4926037;29;20623;-87
2022/04/13 00:20:59;;;;;;;18.08;14.00;;;;;;;;;;4905772;29;20039;-87
2022/04/13 00:23:25;;;;;;;17.10;13.60;;;;;;;;;;4938442;23;20059;-87
2022/04/13 00:25:51;;;;;;;15.73;13.07;;;;;;;;;;4903010;29;20135;-88
2022/04/13 00:28:18;;;;;;;19.95;14.25;;;;;;;;;;4902441;29;20444;-87
2022/04/13 00:30:45;;;;;;;17.10;13.43;;;;;;;;;;4902425;29;20488;-88
2022/04/13 00:35:55;;;;;;;18.02;13.40;;;;;;;;;;4926066;23;20476;-87
2022/04/13 00:38:22;;;;;;;19.73;14.02;;;;;;;;;;4887113;29;20044;-87
2022/04/13 00:40:51;;;;;;;20.25;14.50;;;;;;;;;;4886904;29;21707;-87
2022/04/13 00:43:17;;;;;;;17.40;13.15;;;;;;;;;;4905381;29;20134;-88
2022/04/13 00:45:49;;;;;;;17.50;14.55;;;;;;;;;;4893519;23;20050;-87
2022/04/13 00:48:32;;;;;;;18.08;15.02;;;;;;;;;;4888338;29;20040;-88
2022/04/13 00:50:58;;;;;;;16.95;13.85;;;;;;;;;;4869635;29;20043;-88
2022/04/13 00:53:25;;;;;;;18.42;13.60;;;;;;;;;;4919435;29;20493;-87
2022/04/13 00:55:55;;;;;;;18.75;14.43;;;;;;;;;;4885213;29;20048;-87
2022/04/13 00:58:38;;;;;;;19.55;14.82;;;;;;;;;;4918776;29;22108;-88
2022/04/13 01:01:05;;;;;;;18.77;14.40;;;;;;;;;;4922299;29;20083;-88
2022/04/13 01:03:31;;;;;;;22.50;15.15;;;;;;;;;;4897254;29;21017;-88
2022/04/13 01:05:57;;;;;;;19.02;14.68;;;;;;;;;;4904770;29;20428;-89
2022/04/13 01:08:27;;;;;;;17.45;14.20;;;;;;;;;;4883897;29;20067;-88
2022/04/13 01:10:54;;;;;;;19.90;15.15;;;;;;;;;;4930887;29;20047;-88
2022/04/13 01:19:24;;;;;;;21.02;14.23;;;;;;;;;;4924560;23;20048;-88
2022/04/13 01:21:59;;;;;;;22.10;14.65;;;;;;;;;;4905814;29;20084;-87
2022/04/13 01:24:29;;;;;;;18.83;14.68;;;;;;;;;;4890921;29;20130;-87
2022/04/13 01:26:56;;;;;;;21.60;15.48;;;;;;;;;;4903937;29;20579;-86
2022/04/13 01:29:22;;;;;;;17.67;14.30;;;;;;;;;;4907770;29;20077;-88
2022/04/13 01:31:49;;;;;;;19.58;15.38;;;;;;;;;;5045302;23;20059;-89
2022/04/13 01:34:15;;;;;;;22.55;15.80;;;;;;;;;;4857538;29;20052;-88
2022/04/13 01:39:25;;;;;;;19.10;15.98;;;;;;;;;;4879137;23;20091;-86
2022/04/13 01:41:51;;;;;;;21.13;16.50;;;;;;;;;;4865442;29;20040;-88
2022/04/13 01:47:27;;;;;;;18.38;15.40;;;;;;;;;;4929643;23;20048;-87
2022/04/13 01:49:54;;;;;;;16.90;14.30;;;;;;;;;;4910386;29;20051;-89
2022/04/13 01:52:20;;;;;;;19.20;14.02;;;;;;;;;;4893756;28;20078;-88
2022/04/13 01:54:46;;;;;;;25.10;14.85;;;;;;;;;;4908306;29;20118;-87
2022/04/13 01:57:40;;;;;;;18.95;14.70;;;;;;;;;;4940472;29;20080;-88
2022/04/13 02:00:14;;;;;;;19.08;13.82;;;;;;;;;;4905483;28;20563;-86
2022/04/13 02:02:40;;;;;;;20.37;15.00;;;;;;;;;;4922799;29;20137;-88
2022/04/13 02:05:06;;;;;;;18.13;14.52;;;;;;;;;;4910915;29;20691;-88
2022/04/13 02:07:32;;;;;;;19.00;14.50;;;;;;;;;;4922921;29;20051;-89
2022/04/13 02:09:58;;;;;;;16.17;13.75;;;;;;;;;;4897190;23;20022;-88
2022/04/13 02:12:28;;;;;;;20.25;14.45;;;;;;;;;;4913881;29;20516;-87
2022/04/13 02:18:48;;;;;;;20.30;13.20;;;;;;;;;;4910325;29;20047;-83
2022/04/13 02:24:51;;;;;;;16.63;13.40;;;;;;;;;;5239411;23;20106;-88
2022/04/13 02:27:17;;;;;;;15.60;12.73;;;;;;;;;;4887945;29;20052;-86
2022/04/13 02:29:46;;;;;;;19.10;13.00;;;;;;;;;;4873425;29;20047;-85
2022/04/13 02:32:12;;;;;;;14.32;12.30;;;;;;;;;;5258999;23;20060;-87
2022/04/13 02:34:38;;;;;;;14.52;12.30;;;;;;;;;;4872172;29;20079;-87
2022/04/13 02:37:04;;;;;;;18.40;12.50;;;;;;;;;;4863684;29;20040;-86
2022/04/13 02:39:30;;;;;;;14.48;12.95;;;;;;;;;;4869677;29;20882;-90
2022/04/13 02:44:35;;;;;;;15.80;12.20;;;;;;;;;;4910859;23;20408;-86
2022/04/13 02:47:01;;;;;;;16.52;12.75;;;;;;;;;;4881112;29;20425;-88
2022/04/13 02:49:27;;;;;;;19.45;13.10;;;;;;;;;;4872006;29;20044;-87
2022/04/13 02:51:53;;;;;;;22.95;13.40;;;;;;;;;;4855517;29;20037;-87
2022/04/13 02:54:19;;;;;;;14.77;11.98;;;;;;;;;;4873196;29;20046;-88
2022/04/13 02:56:45;;;;;;;16.45;12.43;;;;;;;;;;4886610;29;22047;-87
2022/04/13 02:59:11;;;;;;;18.10;12.82;;;;;;;;;;4885108;29;20080;-87
2022/04/13 03:01:37;;;;;;;18.58;12.40;;;;;;;;;;4872817;29;20052;-87
2022/04/13 03:11:11;;;;;;;16.75;11.00;;;;;;;;;;5430200;23;20151;-88
2022/04/13 03:13:38;;;;;;;15.90;10.95;;;;;;;;;;4898784;23;20179;-89
2022/04/13 03:16:04;;;;;;;14.60;11.57;;;;;;;;;;4882555;29;20048;-88
2022/04/13 03:18:31;;;;;;;13.15;10.98;;;;;;;;;;4874749;29;20053;-87
2022/04/13 03:20:57;;;;;;;16.25;11.32;;;;;;;;;;4880048;29;20560;-88
2022/04/13 03:23:46;;;;;;;20.95;11.80;;;;;;;;;;4904450;29;20053;-87
2022/04/13 03:26:21;;;;;;;15.27;11.90;;;;;;;;;;4907349;29;20412;-88
2022/04/13 03:28:47;;;;;;;15.18;11.70;;;;;;;;;;4891345;29;20052;-85
2022/04/13 03:31:14;;;;;;;14.70;11.43;;;;;;;;;;4890932;29;20440;-89
2022/04/13 03:33:40;;;;;;;14.98;12.18;;;;;;;;;;4914350;29;20063;-87
2022/04/13 03:36:06;;;;;;;17.20;12.57;;;;;;;;;;4873023;29;20052;-88
2022/04/13 03:38:32;;;;;;;20.45;12.45;;;;;;;;;;4905782;29;20135;-88
2022/04/13 03:40:58;;;;;;;14.07;11.70;;;;;;;;;;4868490;29;20102;-89
2022/04/13 03:43:27;;;;;;;14.73;11.65;;;;;;;;;;4868903;29;20040;-87
2022/04/13 03:45:53;;;;;;;21.60;12.68;;;;;;;;;;4885155;29;20123;-88
2022/04/13 03:48:19;;;;;;;21.08;12.30;;;;;;;;;;4872760;29;20055;-87
2022/04/13 03:50:50;;;;;;;17.75;12.50;;;;;;;;;;4892326;29;20123;-87
2022/04/13 03:53:16;;;;;;;16.45;11.82;;;;;;;;;;4888020;29;20072;-85
2022/04/13 03:55:42;;;;;;;19.00;12.00;;;;;;;;;;4903581;29;20040;-88
2022/04/13 03:58:08;;;;;;;15.43;12.25;;;;;;;;;;4899108;29;20079;-89
2022/04/13 04:00:37;;;;;;;15.02;12.55;;;;;;;;;;4874416;29;20107;-87
2022/04/13 04:03:03;;;;;;;15.90;12.65;;;;;;;;;;4885957;29;20084;-86
2022/04/13 04:05:29;;;;;;;22.27;12.45;;;;;;;;;;4881260;29;20036;-88
2022/04/13 04:07:55;;;;;;;20.35;13.30;;;;;;;;;;4879924;29;20071;-87
2022/04/13 04:10:22;;;;;;;15.85;13.23;;;;;;;;;;4883206;29;20111;-87
2022/04/13 04:12:48;;;;;;;19.02;13.32;;;;;;;;;;4881598;29;20134;-86
2022/04/13 04:15:14;;;;;;;20.73;13.82;;;;;;;;;;4903300;29;20049;-87
2022/04/13 04:17:40;;;;;;;21.80;14.27;;;;;;;;;;4885181;29;20390;-87
2022/04/13 04:20:07;;;;;;;20.13;14.38;;;;;;;;;;4883345;29;20046;-87
2022/04/13 04:22:52;;;;;;;21.98;13.60;;;;;;;;;;4889696;29;20100;-85
2022/04/13 04:25:18;;;;;;;18.75;14.63;;;;;;;;;;4893240;29;20131;-86
2022/04/13 04:27:44;;;;;;;24.08;14.25;;;;;;;;;;4907827;29;20043;-87
2022/04/13 04:30:10;;;;;;;18.33;13.98;;;;;;;;;;4889847;29;20083;-87
2022/04/13 04:32:36;;;;;;;23.52;14.80;;;;;;;;;;4898821;29;20048;-86
2022/04/13 04:35:04;;;;;;;21.65;14.95;;;;;;;;;;4899349;29;20501;-86
2022/04/13 04:37:30;;;;;;;27.13;15.15;;;;;;;;;;4903489;29;20112;-87
2022/04/13 04:40:06;;;;;;;19.77;14.50;;;;;;;;;;4904645;29;20051;-87
2022/04/13 04:42:33;;;;;;;20.15;15.27;;;;;;;;;;4883830;29;20321;-88
2022/04/13 04:44:59;;;;;;;23.65;16.40;;;;;;;;;;4871269;29;20159;-87
2022/04/13 04:47:28;;;;;;;21.85;15.13;;;;;;;;;;4902166;29;20106;-87
2022/04/13 04:49:54;;;;;;;22.05;15.90;;;;;;;;;;4887203;29;20154;-88
2022/04/13 04:52:20;;;;;;;25.08;17.20;;;;;;;;;;4898705;29;20040;-88
2022/04/13 04:54:46;;;;;;;23.98;16.25;;;;;;;;;;4880738;29;20036;-86
2022/04/13 04:57:12;;;;;;;21.08;15.98;;;;;;;;;;4878083;29;20052;-87
2022/04/13 04:59:38;;;;;;;22.83;17.02;;;;;;;;;;4869518;29;20123;-87
2022/04/13 05:02:04;;;;;;;25.55;17.10;;;;;;;;;;4877310;29;20131;-87
2022/04/13 05:04:30;;;;;;;25.42;16.27;;;;;;;;;;4860150;29;20736;-87
2022/04/13 05:07:09;;;;;;;26.90;15.80;;;;;;;;;;4859850;29;20134;-86
2022/04/13 05:09:35;;;;;;;26.48;16.17;;;;;;;;;;4881625;29;20828;-87
2022/04/13 05:12:01;;;;;;;22.58;15.70;;;;;;;;;;4868005;29;20040;-87
2022/04/13 05:14:29;;;;;;;24.60;16.65;;;;;;;;;;4878605;29;20095;-87
2022/04/13 05:16:55;;;;;;;24.27;16.48;;;;;;;;;;4898340;29;20151;-87
2022/04/13 05:19:21;;;;;;;28.75;17.13;;;;;;;;;;4897685;29;20052;-87
2022/04/13 05:21:47;;;;;;;30.33;16.50;;;;;;;;;;4874810;29;20568;-87
2022/04/13 05:26:39;;;;;;;26.73;16.35;;;;;;;;;;5017567;23;20097;-88
2022/04/13 05:29:05;;;;;;;33.25;16.63;;;;;;;;;;4883366;29;20591;-86
2022/04/13 05:31:31;;;;;;;22.40;16.20;;;;;;;;;;4889097;29;20090;-87
2022/04/13 05:33:57;;;;;;;24.38;16.15;;;;;;;;;;4911934;29;20047;-86
2022/04/13 05:36:23;;;;;;;25.08;15.93;;;;;;;;;;4895766;29;20531;-87
2022/04/13 05:38:50;;;;;;;27.40;16.55;;;;;;;;;;4896919;29;20056;-87
2022/04/13 05:41:22;;;;;;;23.42;16.48;;;;;;;;;;4924711;29;20087;-86
2022/04/13 05:43:51;;;;;;;28.15;16.65;;;;;;;;;;4897210;29;20055;-87
2022/04/13 05:46:17;;;;;;;30.88;16.60;;;;;;;;;;4887552;29;20512;-87
2022/04/13 05:48:43;;;;;;;27.95;15.43;;;;;;;;;;4895674;29;20055;-87
2022/04/13 05:51:09;;;;;;;22.70;15.60;;;;;;;;;;4924636;29;20071;-86
2022/04/13 05:53:36;;;;;;;29.85;16.83;;;;;;;;;;4898778;29;20138;-87
2022/04/13 05:56:02;;;;;;;27.30;16.80;;;;;;;;;;4911672;29;20682;-87
2022/04/13 06:06:01;;;;;;;29.50;16.77;;;;;;;;;;5260561;23;20110;-87
2022/04/13 06:08:27;;;;;;;21.88;16.90;;;;;;;;;;4894338;29;20048;-86
2022/04/13 06:10:53;;;;;;;24.48;15.95;;;;;;;;;;4894741;29;20055;-85
2022/04/13 06:13:19;;;;;;;30.17;17.08;;;;;;;;;;4877563;29;20049;-86
2022/04/13 06:15:46;;;;;;;23.63;16.98;;;;;;;;;;4895273;29;20040;-86
2022/04/13 06:18:12;;;;;;;26.13;16.83;;;;;;;;;;4905207;29;20157;-86
2022/04/13 06:21:12;;;;;;;25.67;17.17;;;;;;;;;;4913810;29;20071;-86
2022/04/13 06:23:40;;;;;;;25.80;17.45;;;;;;;;;;4895205;29;20146;-87
2022/04/13 06:26:34;;;;;;;25.05;17.05;;;;;;;;;;4927380;29;20061;-86
2022/04/13 06:29:00;;;;;;;;;;;;;;;;;;4911022;29;20574;-85
2022/04/13 06:31:27;;;;;;;30.90;16.90;;;;;;;;;;4908186;29;20018;-87
2022/04/13 06:33:53;;;;;;;26.95;16.70;;;;;;;;;;4917399;29;20048;-86
2022/04/13 06:36:19;;;;;;;24.85;16.77;;;;;;;;;;4927379;29;20039;-83
2022/04/13 06:38:46;;;;;;;27.27;17.20;;;;;;;;;;4910782;29;20043;-82
2022/04/13 06:43:47;;;;;;;22.92;16.98;;;;;;;;;;4910850;23;20060;-87
2022/04/13 06:46:13;;;;;;;23.55;15.88;;;;;;;;;;4876254;29;20047;-86
2022/04/13 06:48:39;;;;;;;27.17;16.35;;;;;;;;;;4909425;29;20051;-85
2022/04/13 06:51:08;;;;;;;24.70;15.77;;;;;;;;;;4908621;29;20052;-86
2022/04/13 06:53:34;;;;;;;26.65;16.17;;;;;;;;;;4890141;29;20049;-86
2022/04/13 06:56:00;;;;;;;24.02;16.30;;;;;;;;;;4908168;29;20127;-87
2022/04/13 06:58:26;;;;;;;23.77;15.68;;;;;;;;;;4888316;29;20040;-87
2022/04/13 07:01:05;;;;;;;30.05;16.70;;;;;;;;;;4908993;29;20044;-88
2022/04/13 07:03:31;;;;;;;24.35;15.77;;;;;;;;;;4908012;29;20076;-88
2022/04/13 07:05:57;;;;;;;25.52;17.85;;;;;;;;;;4876303;29;20063;-86
2022/04/13 07:08:23;;;;;;;24.73;17.25;;;;;;;;;;4907280;29;20052;-88
2022/04/13 07:10:49;;;;;;;24.40;16.75;;;;;;;;;;4859486;29;20047;-87
2022/04/13 07:13:16;;;;;;;33.42;17.95;;;;;;;;;;4907351;29;20219;-87
2022/04/13 07:15:43;;;;;;;28.23;18.30;;;;;;;;;;4907381;29;20535;-87
2022/04/13 07:18:14;;;;;;;23.90;16.85;;;;;;;;;;4893672;29;20040;-87
2022/04/13 07:20:41;;;;;;;29.73;17.42;;;;;;;;;;4906660;29;20052;-85
2022/04/13 07:23:07;;;;;;;35.85;18.00;;;;;;;;;;4894774;29;20048;-87
2022/04/13 07:25:33;;;;;;;27.70;17.60;;;;;;;;;;4914196;29;20067;-85
2022/04/13 07:28:00;;;;;;;31.27;17.80;;;;;;;;;;4899976;29;20044;-85
2022/04/13 07:30:26;;;;;;;26.38;17.08;;;;;;;;;;4911701;29;20040;-85
2022/04/13 07:32:53;;;;;;;26.02;16.73;;;;;;;;;;4910767;29;20047;-87
2022/04/13 07:35:19;;;;;;;29.05;17.25;;;;;;;;;;4909437;29;20087;-84
2022/04/13 07:37:46;;;;;;;26.70;18.63;;;;;;;;;;4909770;29;20059;-85
2022/04/13 07:40:12;;;;;;;29.88;15.95;;;;;;;;;;4910622;29;20040;-88
2022/04/13 07:42:39;;;;;;;24.20;13.82;;;;;;;;;;4910799;29;20052;-87
2022/04/13 07:45:06;;;;;;;21.67;12.88;;;;;;;;;;4910547;29;20719;-86
2022/04/13 07:47:35;;;;;;;20.67;13.98;;;;;;;;;;4863460;29;20123;-87
2022/04/13 07:50:01;;;;;;;21.40;13.45;;;;;;;;;;4911040;29;20044;-86
2022/04/13 07:52:27;;;;;;;24.33;11.82;;;;;;;;;;4910369;29;20100;-87
2022/04/13 07:54:53;;;;;;;26.83;13.50;;;;;;;;;;4909743;29;20473;-86
2022/04/13 07:57:19;;;;;;;21.98;12.77;;;;;;;;;;4908390;29;20055;-85
2022/04/13 07:59:45;;;;;;;22.00;14.02;;;;;;;;;;4891250;29;20055;-86
2022/04/13 08:02:12;;;;;;;21.65;13.85;;;;;;;;;;4894413;29;20044;-85
2022/04/13 08:04:49;;;;;;;24.85;14.65;;;;;;;;;;4905746;29;20048;-87
2022/04/13 08:07:15;;;;;;;23.73;13.98;;;;;;;;;;4879596;29;20040;-86
2022/04/13 08:09:42;;;;;;;24.00;13.50;;;;;;;;;;4911660;29;20055;-85
2022/04/13 08:12:08;;;;;;;21.58;14.10;;;;;;;;;;4911292;29;20040;-85
2022/04/13 08:14:34;;;;;;;23.48;14.60;;;;;;;;;;4908924;29;20524;-86
2022/04/13 08:17:03;;;;;;;24.77;15.63;;;;;;;;;;4894839;29;20123;-86
2022/04/13 08:19:30;;;;;;;25.73;17.77;;;;;;;;;;4914374;29;20030;-84
2022/04/13 08:21:57;;;;;;;25.33;16.08;;;;;;;;;;4912512;29;20119;-85
2022/04/13 08:24:23;;;;;;;21.35;15.93;;;;;;;;;;4902581;29;20131;-84
2022/04/13 08:26:49;;;;;;;29.15;17.38;;;;;;;;;;4913284;29;20036;-85
2022/04/13 08:29:27;;;;;;;26.38;16.42;;;;;;;;;;4878415;29;20047;-86
2022/04/13 08:31:54;;;;;;;27.77;17.52;;;;;;;;;;4909434;29;20052;-86
2022/04/13 08:34:20;;;;;;;24.02;16.33;;;;;;;;;;4910496;29;20060;-88
2022/04/13 08:36:47;;;;;;;24.10;16.63;;;;;;;;;;4892368;29;20040;-89
2022/04/13 08:39:16;;;;;;;24.25;16.83;;;;;;;;;;4912131;29;20055;-84
2022/04/13 08:41:48;;;;;;;27.20;17.15;;;;;;;;;;4894173;29;20087;-85
2022/04/13 08:44:38;;;;;;;29.98;17.83;;;;;;;;;;4909755;29;20060;-86
2022/04/13 08:47:07;;;;;;;24.95;17.83;;;;;;;;;;4887459;29;20572;-85
2022/04/13 08:49:34;;;;;;;28.60;17.98;;;;;;;;;;4909341;29;20052;-85
2022/04/13 08:52:03;;;;;;;22.80;16.65;;;;;;;;;;4894461;29;20138;-86
2022/04/13 08:54:32;;;;;;;29.67;17.42;;;;;;;;;;4909957;29;20389;-85
2022/04/13 08:56:59;;;;;;;26.65;17.60;;;;;;;;;;4909038;29;20059;-85
2022/04/13 08:59:25;;;;;;;29.58;16.95;;;;;;;;;;4913093;29;20048;-85
2022/04/13 09:01:56;;;;;;;28.65;18.60;;;;;;;;;;4893970;29;20138;-87
2022/04/13 09:04:26;;;;;;;28.55;17.38;;;;;;;;;;4911165;29;20127;-86
2022/04/13 09:06:55;;;;;;;29.27;17.38;;;;;;;;;;4892129;29;20099;-85
2022/04/13 09:09:37;;;;;;;24.30;17.45;;;;;;;;;;4911704;29;20501;-84
2022/04/13 09:12:04;;;;;;;27.10;17.17;;;;;;;;;;4910990;29;20048;-86
2022/04/13 09:14:30;;;;;;;27.52;17.25;;;;;;;;;;4892777;29;20040;-86
2022/04/13 09:16:57;;;;;;;24.20;16.85;;;;;;;;;;4910659;29;20050;-86
2022/04/13 09:19:26;;;;;;;26.02;15.82;;;;;;;;;;4892828;29;20127;-85
2022/04/13 09:21:53;;;;;;;25.02;16.25;;;;;;;;;;4910698;29;20052;-86
2022/04/13 09:27:16;;;;;;;26.05;15.57;;;;;;;;;;4907541;29;20059;-85
2022/04/13 09:29:42;;;;;;;28.52;15.60;;;;;;;;;;4906779;29;20052;-84
2022/04/13 09:32:12;;;;;;;26.55;15.43;;;;;;;;;;4911544;29;20133;-86
2022/04/13 09:34:38;;;;;;;23.83;15.70;;;;;;;;;;4910170;29;20052;-86
2022/04/13 09:37:04;;;;;;;23.23;14.65;;;;;;;;;;4878911;29;20131;-86
2022/04/13 09:39:30;;;;;;;22.23;14.85;;;;;;;;;;4874368;29;20048;-84
2022/04/13 09:42:01;;;;;;;19.42;13.80;;;;;;;;;;4906056;29;20063;-86
2022/04/13 09:44:30;;;;;;;22.05;13.73;;;;;;;;;;4910416;29;20116;-85
2022/04/13 09:47:16;;;;;;;23.25;13.48;;;;;;;;;;4891726;29;20075;-84
2022/04/13 09:49:46;;;;;;;21.23;13.32;;;;;;;;;;4911374;29;20048;-84
2022/04/13 09:52:15;;;;;;;20.70;14.13;;;;;;;;;;4910143;29;20036;-85
2022/04/13 09:54:48;;;;;;;15.45;10.00;;;;;;;;;;4891530;29;20044;-85
2022/04/13 09:57:24;;;;;;;20.63;11.23;;;;;;;;;;4909574;29;20052;-86
2022/04/13 09:59:56;;;;;;;15.27;10.13;;;;;;;;;;4907598;29;20721;-85
2022/04/13 10:02:42;;;;;;;13.90;9.63;;;;;;;;;;4909700;29;20058;-86
2022/04/13 10:05:17;;;;;;;14.65;9.70;;;;;;;;;;4908936;29;20048;-87
2022/04/13 10:07:43;;;;;;;15.32;10.02;;;;;;;;;;4909301;29;20092;-85
2022/04/13 10:10:23;;;;;;;18.15;10.73;;;;;;;;;;4909155;29;20134;-86
2022/04/13 10:12:49;;;;;;;18.90;11.35;;;;;;;;;;4910164;29;20044;-83
2022/04/13 10:15:19;;;;;;;19.58;10.75;;;;;;;;;;4910382;29;20047;-89
2022/04/13 10:17:45;;;;;;;16.83;10.00;;;;;;;;;;4894281;29;20063;-88
2022/04/13 10:23:43;;;;;;;16.08;10.07;;;;;;;;;;4916803;23;20055;-89
2022/04/13 10:26:10;;;;;;;17.73;9.00;;;;;;;;;;4858501;29;20060;-85
2022/04/13 10:28:47;;;;;;;15.48;8.75;;;;;;;;;;4891555;29;20159;-88
2022/04/13 10:31:13;;;;;;;12.70;10.18;;;;;;;;;;4910437;29;20056;-87
2022/04/13 10:33:56;;;;;;;22.02;9.80;;;;;;;;;;4876189;29;20052;-88
2022/04/13 10:36:22;;;;;;;15.35;8.82;;;;;;;;;;4910087;29;20099;-86
2022/04/13 10:38:49;;;;;;;16.85;9.57;;;;;;;;;;4887882;29;20083;-84
2022/04/13 10:41:21;;;;;;;13.77;9.60;;;;;;;;;;4910067;29;20416;-86
2022/04/13 10:43:49;;;;;;;15.63;9.93;;;;;;;;;;4910831;29;20060;-88
2022/04/13 10:53:11;;;;;;;14.85;9.15;;;;;;;;;;4922158;23;20149;-87
2022/04/13 10:55:37;;;;;;;15.10;9.13;;;;;;;;;;4894987;29;20056;-87
2022/04/13 10:58:11;;;;;;;14.23;8.95;;;;;;;;;;4911469;29;20048;-86
2022/04/13 11:00:38;;;;;;;13.00;8.15;;;;;;;;;;4892665;29;20063;-88
2022/04/13 11:03:05;;;;;;;15.00;8.65;;;;;;;;;;4871380;29;20047;-86
2022/04/13 11:05:32;;;;;;;12.13;7.25;;;;;;;;;;4870266;29;20057;-87
2022/04/13 11:08:18;;;;;;;9.93;5.10;;;;;;;;;;4880221;29;20064;-86
2022/04/13 11:10:48;;;;;;;10.20;5.38;;;;;;;;;;4891901;29;20067;-86
2022/04/13 11:13:15;;;;;;;9.77;6.20;;;;;;;;;;4878703;29;20139;-87
2022/04/13 11:15:49;;;;;;;12.50;6.90;;;;;;;;;;4892703;29;20401;-86
2022/04/13 11:18:17;;;;;;;9.75;6.60;;;;;;;;;;4910669;29;20084;-86
2022/04/13 11:21:02;;;;;;;10.48;7.55;;;;;;;;;;4877605;29;20048;-86
2022/04/13 11:23:50;;;;;;;15.93;8.15;;;;;;;;;;4892937;29;20064;-85
2022/04/13 11:26:26;;;;;;;12.18;6.03;;;;;;;;;;4893174;29;20063;-85
2022/04/13 11:29:10;;;;;;;11.57;6.30;;;;;;;;;;4895211;29;20063;-85
2022/04/13 11:31:56;;;;;;;11.65;5.80;;;;;;;;;;4896875;29;20531;-86
2022/04/13 11:34:28;;;;;;;9.82;6.15;;;;;;;;;;4908358;29;20962;-86
2022/04/13 11:36:58;;;;;;;12.52;6.10;;;;;;;;;;4913607;29;20480;-87
2022/04/13 11:39:43;;;;;;;11.77;6.28;;;;;;;;;;4886557;29;20058;-89
2022/04/13 11:42:21;;;;;;;13.70;5.57;;;;;;;;;;4911881;29;20155;-88
2022/04/13 11:45:00;;;;;;;14.23;5.75;;;;;;;;;;4880067;29;20044;-89
2022/04/13 11:47:36;;;;;;;8.05;4.40;;;;;;;;;;4919304;23;20052;-89
2022/04/13 11:50:05;;;;;;;7.10;4.38;;;;;;;;;;4881369;29;20617;-89
2022/04/13 11:52:42;;;;;;;8.27;4.50;;;;;;;;;;4898492;29;20067;-88
2022/04/13 11:55:18;;;;;;;8.27;3.90;;;;;;;;;;4880087;29;20048;-86
2022/04/13 11:58:03;;;;;;;8.25;3.90;;;;;;;;;;4868036;29;20078;-88
2022/04/13 12:00:49;;;;;;;5.93;4.35;;;;;;;;;;4887247;23;20127;-89
2022/04/13 12:03:16;;;;;;;7.88;4.10;;;;;;;;;;4912787;29;20497;-86
2022/04/13 12:05:54;;;;;;;7.55;4.45;;;;;;;;;;4913891;29;20508;-87
2022/04/13 12:08:26;;;;;;;11.40;5.03;;;;;;;;;;4892657;29;20052;-85
2022/04/13 12:11:09;;;;;;;12.52;5.28;;;;;;;;;;4912787;29;20092;-85
2022/04/13 12:13:54;;;;;;;12.52;5.65;;;;;;;;;;4877606;29;20055;-85
2022/04/13 12:16:42;;;;;;;10.98;5.60;;;;;;;;;;4913600;29;20148;-88
2022/04/13 12:19:37;;;;;;;10.43;5.18;;;;;;;;;;4915768;29;20636;-86
2022/04/13 12:22:13;;;;;;;9.50;5.88;;;;;;;;;;4911861;29;20043;-87
2022/04/13 12:24:55;;;;;;;11.57;4.55;;;;;;;;;;4892297;29;20076;-86
2022/04/13 12:27:34;;;;;;;11.13;4.95;;;;;;;;;;4900723;29;20044;-86
2022/04/13 12:30:25;;;;;;;10.57;4.32;;;;;;;;;;4893211;29;20186;-85
2022/04/13 12:32:51;;;;;;;10.02;5.15;;;;;;;;;;4892096;29;20098;-85
2022/04/13 12:35:18;;;;;;;11.90;5.22;;;;;;;;;;4896911;29;20044;-86
2022/04/13 12:37:54;;;;;;;6.93;3.63;;;;;;;;;;4870503;29;20088;-86
2022/04/13 12:40:20;;;;;;;10.48;4.20;;;;;;;;;;4906332;29;20095;-86
2022/04/13 12:42:47;;;;;;;6.97;2.70;;;;;;;;;;4896992;29;20059;-85
2022/04/13 12:45:13;;;;;;;6.95;1.80;;;;;;;;;;4893801;29;20538;-86
2022/04/13 12:47:46;;;;;;;6.80;1.98;;;;;;;;;;4880372;29;20103;-85
2022/04/13 12:53:25;;;;;;;6.72;2.03;;;;;;;;;;4918851;23;20056;-87
2022/04/13 12:56:00;;;;;;;7.55;2.22;;;;;;;;;;4894201;29;20060;-87
2022/04/13 12:58:26;;;;;;;4.80;1.90;;;;;;;;;;4891569;29;20055;-87
2022/04/13 13:00:55;;;;;;;10.63;2.80;;;;;;;;;;4875598;29;20107;-86
2022/04/13 13:03:28;;;;;;;10.65;3.17;;;;;;;;;;4893561;29;20155;-88
2022/04/13 13:05:54;;;;;;;7.57;2.75;;;;;;;;;;4862528;29;20142;-86
2022/04/13 13:08:20;;;;;;;12.23;4.55;;;;;;;;;;4879282;29;20044;-86
2022/04/13 13:10:47;;;;;;;10.63;4.15;;;;;;;;;;4898883;29;20448;-86
2022/04/13 13:13:13;;;;;;;12.27;4.40;;;;;;;;;;4863117;29;20044;-87
2022/04/13 13:15:40;;;;;;;14.02;4.20;;;;;;;;;;4904968;29;20071;-87
2022/04/13 13:18:07;;;;;;;12.85;3.97;;;;;;;;;;4927773;29;20040;-86
2022/04/13 13:20:33;;;;;;;11.23;4.43;;;;;;;;;;4927133;29;20111;-89
2022/04/13 13:23:00;;;;;;;14.90;4.30;;;;;;;;;;4898940;29;20055;-89
2022/04/13 13:25:26;;;;;;;14.98;4.53;;;;;;;;;;4897144;29;20159;-89
2022/04/13 13:27:57;;;;;;;13.60;4.50;;;;;;;;;;4893607;29;20040;-91
2022/04/13 13:30:28;;;;;;;14.88;4.97;;;;;;;;;;4904599;29;20048;-88
2022/04/13 13:32:55;;;;;;;15.85;5.10;;;;;;;;;;4893389;29;20378;-90
2022/04/13 13:35:32;;;;;;;10.45;4.03;;;;;;;;;;4910338;29;20118;-88
2022/04/13 13:38:08;;;;;;;12.85;4.07;;;;;;;;;;4895525;29;20088;-88
2022/04/13 13:40:40;;;;;;;16.65;5.32;;;;;;;;;;4892576;29;20048;-89
2022/04/13 13:43:06;;;;;;;12.32;5.07;;;;;;;;;;4895477;29;20081;-88
2022/04/13 13:45:33;;;;;;;11.65;4.30;;;;;;;;;;4889822;29;20049;-88
2022/04/13 13:48:00;;;;;;;9.00;3.45;;;;;;;;;;4867484;29;20130;-89
2022/04/13 13:50:26;;;;;;;13.93;3.95;;;;;;;;;;4908942;29;20056;-85
2022/04/13 13:52:52;;;;;;;8.57;3.38;;;;;;;;;;4904650;29;20059;-89
2022/04/13 13:55:32;;;;;;;10.27;3.55;;;;;;;;;;4892128;29;20535;-90
2022/04/13 13:57:59;;;;;;;9.60;4.22;;;;;;;;;;4903769;29;20062;-88
2022/04/13 14:00:26;;;;;;;13.32;4.38;;;;;;;;;;4893016;29;20191;-89
2022/04/13 14:02:52;;;;;;;14.35;4.22;;;;;;;;;;4892219;29;20044;-89
2022/04/13 14:08:41;;;;;;;15.82;4.80;;;;;;;;;;4906931;29;20043;-86
2022/04/13 14:11:25;;;;;;;15.52;4.93;;;;;;;;;;4877674;29;20103;-89
2022/04/13 14:13:51;;;;;;;;;;;;;;;;;;4895655;29;20090;-89
2022/04/13 14:16:50;;;;;;;14.52;5.75;;;;;;;;;;4878907;29;19974;-89
2022/04/13 14:19:16;;;;;;;17.15;4.78;;;;;;;;;;4862349;29;20104;-89
2022/04/13 14:21:42;;;;;;;12.30;5.10;;;;;;;;;;4893018;29;20052;-90
2022/04/13 14:24:19;;;;;;;13.73;4.85;;;;;;;;;;4921066;23;20199;-88
2022/04/13 14:26:46;;;;;;;16.80;5.70;;;;;;;;;;4899128;29;20058;-89
2022/04/13 14:29:12;;;;;;;11.85;4.68;;;;;;;;;;4941398;29;20047;-88
2022/04/13 14:31:38;;;;;;;14.35;5.00;;;;;;;;;;4931662;29;20134;-89
2022/04/13 14:34:10;;;;;;;16.30;4.75;;;;;;;;;;4930981;29;20054;-89
2022/04/13 14:36:37;;;;;;;15.73;4.32;;;;;;;;;;4940930;29;20058;-88
2022/04/13 14:39:06;;;;;;;11.55;4.95;;;;;;;;;;4943208;28;20965;-86
2022/04/13 14:41:32;;;;;;;11.85;4.78;;;;;;;;;;4919307;29;20054;-89
2022/04/13 14:43:58;;;;;;;12.35;4.45;;;;;;;;;;4907101;28;20067;-89
2022/04/13 14:46:26;;;;;;;12.68;5.03;;;;;;;;;;4941347;29;20058;-86
2022/04/13 14:48:52;;;;;;;16.98;5.60;;;;;;;;;;4919302;29;20531;-90
2022/04/13 14:51:19;;;;;;;10.82;4.55;;;;;;;;;;4938888;29;20049;-89
2022/04/13 14:53:45;;;;;;;9.20;4.22;;;;;;;;;;4940893;29;20043;-88
2022/04/13 14:56:11;;;;;;;14.93;4.63;;;;;;;;;;4940870;29;20047;-87
2022/04/13 14:58:38;;;;;;;12.65;4.88;;;;;;;;;;4893398;29;20126;-88
2022/04/13 15:01:04;;;;;;;13.90;5.53;;;;;;;;;;4911808;28;20040;-88
2022/04/13 15:03:30;;;;;;;13.93;4.75;;;;;;;;;;4938756;28;20496;-87
2022/04/13 15:05:56;;;;;;;13.90;4.97;;;;;;;;;;4930533;28;20055;-87
2022/04/13 15:08:22;;;;;;;14.02;5.32;;;;;;;;;;4916051;29;20043;-86
2022/04/13 15:10:49;;;;;;;13.07;6.40;;;;;;;;;;4932530;28;20055;-86
2022/04/13 15:13:15;;;;;;;10.50;5.13;;;;;;;;;;4936872;28;20134;-87
2022/04/13 15:15:42;;;;;;;11.15;5.18;;;;;;;;;;4931747;28;20082;-87
2022/04/13 15:18:08;;;;;;;12.38;5.25;;;;;;;;;;4921785;28;20039;-87
2022/04/13 15:20:34;;;;;;;10.90;5.20;;;;;;;;;;4914356;29;20059;-86
2022/04/13 15:23:00;;;;;;;14.27;5.57;;;;;;;;;;4935409;28;20088;-85
2022/04/13 15:25:26;;;;;;;14.07;5.70;;;;;;;;;;4953611;28;20078;-86
2022/04/13 15:27:52;;;;;;;10.57;4.68;;;;;;;;;;4952639;28;20047;-86
2022/04/13 15:30:22;;;;;;;10.10;4.30;;;;;;;;;;4938260;29;20098;-86
2022/04/13 15:32:50;;;;;;;12.18;4.97;;;;;;;;;;4927693;28;20601;-86
2022/04/13 15:35:16;;;;;;;8.57;4.85;;;;;;;;;;4923841;29;20087;-86
2022/04/13 15:37:43;;;;;;;12.70;5.05;;;;;;;;;;4921120;29;20047;-86
2022/04/13 15:40:10;;;;;;;11.52;5.45;;;;;;;;;;4923664;23;20062;-87